createdAt,value
2018-02-19T00:00:06.512Z,29.33
2018-02-19T00:02:33.477Z,28.17
2018-02-19T00:05:00.425Z,27.85
2018-02-19T00:07:27.431Z,28.35
2018-02-19T00:09:55.216Z,24.75
2018-02-19T00:12:22.265Z,26.15
2018-02-19T00:14:49.245Z,25.58
2018-02-19T00:17:16.284Z,23.52
2018-02-19T00:19:43.204Z,24.10
2018-02-19T00:22:11.270Z,22.40
2018-02-19T00:24:38.963Z,22.37
2018-02-19T00:27:06.007Z,22.15
2018-02-19T00:29:32.979Z,22.75
2018-02-19T00:31:59.989Z,22.77
2018-02-19T00:34:26.932Z,22.70
2018-02-19T00:36:53.858Z,22.02
2018-02-19T00:39:21.607Z,23.00
2018-02-19T00:41:48.601Z,23.40
2018-02-19T00:44:15.604Z,24.75
2018-02-19T00:46:42.553Z,24.35
2018-02-19T00:49:09.553Z,25.30
2018-02-19T00:51:36.504Z,24.80
2018-02-19T00:54:03.414Z,24.30
2018-02-19T00:56:31.167Z,22.13
2018-02-19T00:58:58.837Z,25.77
2018-02-19T01:01:25.759Z,23.67
2018-02-19T01:03:52.774Z,28.55
2018-02-19T01:06:19.694Z,30.23
2018-02-19T01:08:46.755Z,29.40
2018-02-19T01:11:13.864Z,29.55
2018-02-19T01:13:40.773Z,25.10
2018-02-19T01:16:07.713Z,26.55
2018-02-19T01:18:34.956Z,26.23
2018-02-19T01:21:01.940Z,26.20
2018-02-19T01:23:28.983Z,27.27
2018-02-19T01:25:55.971Z,26.42
2018-02-19T01:28:23.024Z,25.40
2018-02-19T01:30:50.011Z,24.75
2018-02-19T01:33:17.077Z,25.05
2018-02-19T01:35:44.011Z,25.17
2018-02-19T01:38:11.017Z,25.48
2018-02-19T01:40:38.011Z,24.23
2018-02-19T01:43:04.966Z,23.95
2018-02-19T01:45:31.934Z,26.00
2018-02-19T01:47:59.912Z,24.55
2018-02-19T01:50:27.722Z,26.33
2018-02-19T01:52:54.752Z,26.52
2018-02-19T01:55:21.913Z,25.55
2018-02-19T01:57:48.908Z,26.42
2018-02-19T02:00:15.871Z,25.27
2018-02-19T02:02:43.731Z,26.42
2018-02-19T02:05:10.673Z,24.65
2018-02-19T02:07:37.827Z,25.50
2018-02-19T02:10:04.766Z,24.27
2018-02-19T02:12:31.777Z,25.33
2018-02-19T02:14:58.875Z,26.85
2018-02-19T02:17:26.712Z,25.75
2018-02-19T02:19:53.797Z,26.00
2018-02-19T02:22:21.442Z,24.73
2018-02-19T02:24:48.404Z,26.80
2018-02-19T02:27:15.508Z,27.27
2018-02-19T02:29:42.606Z,26.65
2018-02-19T02:32:10.306Z,25.45
2018-02-19T02:34:37.351Z,26.62
2018-02-19T02:37:04.329Z,26.55
2018-02-19T02:39:31.339Z,27.02
2018-02-19T02:41:58.493Z,26.85
2018-02-19T02:44:25.517Z,29.23
2018-02-19T02:46:53.298Z,26.98
2018-02-19T02:49:20.304Z,26.27
2018-02-19T02:51:47.410Z,24.87
2018-02-19T02:54:14.435Z,27.70
2018-02-19T02:56:41.432Z,26.45
2018-02-19T02:59:08.582Z,26.70
2018-02-19T03:01:35.717Z,25.60
2018-02-19T03:04:02.716Z,25.75
2018-02-19T03:06:30.463Z,26.33
2018-02-19T03:08:57.664Z,27.52
2018-02-19T03:11:24.664Z,27.83
2018-02-19T03:13:51.702Z,25.62
2018-02-19T03:16:18.668Z,27.10
2018-02-19T03:18:45.614Z,29.42
2018-02-19T03:21:12.641Z,26.65
2018-02-19T03:23:39.631Z,31.12
2018-02-19T03:26:06.699Z,27.80
2018-02-19T03:28:33.659Z,29.77
2018-02-19T03:31:00.650Z,30.67
2018-02-19T03:33:27.648Z,42.80
2018-02-19T03:35:54.634Z,29.90
2018-02-19T03:38:21.636Z,27.02
2018-02-19T03:40:48.848Z,25.48
2018-02-19T03:43:15.976Z,25.83
2018-02-19T03:45:42.875Z,26.23
2018-02-19T03:48:09.764Z,26.33
2018-02-19T03:50:36.811Z,25.83
2018-02-19T03:53:03.813Z,29.05
2018-02-19T03:55:30.834Z,26.35
2018-02-19T03:57:57.851Z,26.37
2018-02-19T04:00:24.980Z,28.48
2018-02-19T04:02:51.885Z,28.60
2018-02-19T04:05:18.971Z,28.38
2018-02-19T04:07:45.967Z,25.98
2018-02-19T04:10:12.962Z,26.62
2018-02-19T04:12:39.967Z,29.40
2018-02-19T04:15:07.655Z,27.30
2018-02-19T04:17:34.656Z,28.33
2018-02-19T04:20:01.616Z,26.10
2018-02-19T04:22:28.827Z,25.67
2018-02-19T04:24:55.818Z,25.75
2018-02-19T04:27:22.858Z,24.50
2018-02-19T04:29:49.910Z,26.10
2018-02-19T04:32:16.975Z,27.52
2018-02-19T04:34:44.200Z,28.17
2018-02-19T04:37:11.280Z,26.98
2018-02-19T04:39:38.331Z,27.20
2018-02-19T04:42:05.282Z,26.58
2018-02-19T04:44:34.159Z,29.40
2018-02-19T04:47:02.008Z,26.98
2018-02-19T04:49:29.074Z,24.60
2018-02-19T04:51:56.059Z,25.42
2018-02-19T04:54:23.031Z,27.55
2018-02-19T04:56:50.123Z,25.00
2018-02-19T04:59:17.094Z,27.08
2018-02-19T05:01:44.863Z,27.67
2018-02-19T05:04:11.882Z,25.27
2018-02-19T05:06:39.008Z,27.15
2018-02-19T05:09:06.051Z,27.10
2018-02-19T05:11:32.956Z,26.15
2018-02-19T05:13:59.888Z,27.55
2018-02-19T05:16:27.759Z,26.33
2018-02-19T05:18:55.534Z,28.58
2018-02-19T05:21:22.608Z,28.55
2018-02-19T05:23:49.652Z,27.83
2018-02-19T05:26:20.955Z,29.12
2018-02-19T05:28:50.575Z,26.75
2018-02-19T05:31:18.527Z,26.37
2018-02-19T05:33:45.579Z,29.48
2018-02-19T05:36:12.688Z,28.27
2018-02-19T05:38:51.698Z,27.62
2018-02-19T05:41:19.640Z,27.70
2018-02-19T05:43:48.170Z,28.62
2018-02-19T05:46:15.190Z,30.90
2018-02-19T05:48:42.108Z,27.67
2018-02-19T05:51:12.920Z,31.10
2018-02-19T05:53:48.289Z,30.48
2018-02-19T05:56:23.289Z,30.90
2018-02-19T05:58:50.472Z,29.67
2018-02-19T06:01:18.205Z,31.55
2018-02-19T06:03:45.091Z,26.05
2018-02-19T06:06:12.812Z,30.45
2018-02-19T06:08:43.243Z,28.67
2018-02-19T06:11:13.460Z,30.08
2018-02-19T06:13:42.831Z,27.62
2018-02-19T06:16:13.990Z,30.30
2018-02-19T06:18:42.459Z,29.42
2018-02-19T06:21:09.462Z,32.05
2018-02-19T06:23:42.067Z,29.00
2018-02-19T06:26:09.772Z,28.23
2018-02-19T06:28:39.794Z,30.20
2018-02-19T06:31:10.194Z,29.87
2018-02-19T06:33:40.409Z,29.30
2018-02-19T06:36:16.216Z,29.25
2018-02-19T06:38:44.012Z,31.45
2018-02-19T06:41:13.284Z,29.80
2018-02-19T06:43:42.926Z,29.02
2018-02-19T06:46:10.158Z,30.75
2018-02-19T06:48:38.560Z,31.92
2018-02-19T06:51:06.797Z,31.92
2018-02-19T06:53:34.057Z,30.10
2018-02-19T06:56:01.088Z,33.10
2018-02-19T06:58:31.893Z,32.47
2018-02-19T07:01:02.380Z,34.22
2018-02-19T07:03:35.207Z,32.28
2018-02-19T07:08:56.384Z,35.00
2018-02-19T07:11:24.194Z,36.35
2018-02-19T07:13:51.313Z,34.15
2018-02-19T07:16:30.078Z,33.50
2018-02-19T07:18:57.602Z,31.58
2018-02-19T07:21:24.609Z,27.90
2018-02-19T07:23:51.508Z,28.87
2018-02-19T07:26:18.510Z,29.92
2018-02-19T07:28:53.245Z,27.75
2018-02-19T07:31:22.666Z,27.95
2018-02-19T07:33:59.861Z,28.85
2018-02-19T07:36:27.562Z,27.05
2018-02-19T07:38:59.664Z,26.58
2018-02-19T07:41:33.620Z,26.42
2018-02-19T07:44:03.102Z,25.90
2018-02-19T07:46:34.337Z,27.95
2018-02-19T07:49:09.591Z,27.40
2018-02-19T07:51:39.072Z,26.63
2018-02-19T07:54:07.842Z,26.93
2018-02-19T07:56:44.196Z,25.73
2018-02-19T07:59:21.158Z,27.63
2018-02-19T08:01:50.856Z,24.97
2018-02-19T08:04:19.268Z,26.90
2018-02-19T08:06:49.135Z,25.00
2018-02-19T08:09:19.110Z,27.93
2018-02-19T08:11:48.243Z,24.90
2018-02-19T08:14:16.631Z,25.30
2018-02-19T08:16:51.747Z,28.57
2018-02-19T08:19:27.035Z,24.17
2018-02-19T08:21:54.951Z,27.20
2018-02-19T08:24:22.040Z,26.52
2018-02-19T08:26:49.118Z,26.85
2018-02-19T08:29:16.842Z,27.90
2018-02-19T08:31:47.356Z,26.75
2018-02-19T08:34:14.765Z,24.97
2018-02-19T08:36:54.520Z,24.60
2018-02-19T08:39:22.388Z,26.63
2018-02-19T08:41:50.163Z,24.27
2018-02-19T08:44:29.193Z,25.03
2018-02-19T08:47:08.246Z,24.83
2018-02-19T08:49:39.760Z,26.10
2018-02-19T08:52:09.754Z,26.70
2018-02-19T08:54:42.875Z,24.57
2018-02-19T08:57:17.726Z,24.30
2018-02-19T08:59:51.804Z,24.33
2018-02-19T09:02:21.770Z,25.27
2018-02-19T09:05:00.136Z,23.90
2018-02-19T09:07:35.810Z,24.13
2018-02-19T09:10:06.544Z,23.80
2018-02-19T09:12:35.673Z,24.37
2018-02-19T09:15:12.753Z,24.53
2018-02-19T09:17:44.769Z,21.77
2018-02-19T09:20:23.844Z,23.60
2018-02-19T09:23:00.082Z,20.90
2018-02-19T09:25:33.858Z,22.23
2018-02-19T09:30:45.217Z,21.27
2018-02-19T09:33:12.995Z,20.37
2018-02-19T09:35:53.631Z,21.40
2018-02-19T09:38:22.990Z,19.93
2018-02-19T09:41:04.273Z,20.40
2018-02-19T09:43:32.734Z,22.67
2018-02-19T09:46:05.153Z,22.23
2018-02-19T09:48:34.549Z,21.53
2018-02-19T09:51:02.469Z,22.83
2018-02-19T09:53:34.492Z,21.17
2018-02-19T09:56:02.152Z,21.30
2018-02-19T09:58:29.271Z,21.00
2018-02-19T10:00:56.262Z,21.03
2018-02-19T10:03:25.899Z,21.23
2018-02-19T10:05:54.750Z,22.60
2018-02-19T10:08:22.413Z,19.90
2018-02-19T10:10:57.549Z,22.13
2018-02-19T10:13:26.504Z,23.48
2018-02-19T10:15:56.192Z,22.43
2018-02-19T10:18:25.930Z,22.33
2018-02-19T10:20:55.113Z,21.55
2018-02-19T10:23:24.754Z,20.80
2018-02-19T10:25:58.136Z,21.35
2018-02-19T10:28:27.393Z,20.47
2018-02-19T10:31:02.851Z,23.42
2018-02-19T10:33:31.484Z,22.60
2018-02-19T10:36:10.751Z,21.95
2018-02-19T10:38:38.804Z,22.13
2018-02-19T10:41:14.578Z,22.75
2018-02-19T10:43:42.178Z,22.90
2018-02-19T10:46:14.175Z,21.50
2018-02-19T10:48:41.361Z,24.02
2018-02-19T10:51:20.643Z,21.80
2018-02-19T10:54:03.987Z,18.77
2018-02-19T10:59:24.861Z,19.17
2018-02-19T11:02:05.946Z,18.03
2018-02-19T11:04:45.838Z,20.67
2018-02-19T11:07:13.674Z,19.93
2018-02-19T11:09:40.701Z,20.43
2018-02-19T11:12:07.788Z,22.57
2018-02-19T11:14:34.765Z,20.93
2018-02-19T11:17:02.597Z,19.80
2018-02-19T11:19:29.656Z,21.83
2018-02-19T11:21:56.656Z,19.77
2018-02-19T11:24:23.758Z,21.40
2018-02-19T11:26:50.737Z,21.77
2018-02-19T11:29:18.209Z,20.70
2018-02-19T11:31:45.148Z,20.70
2018-02-19T11:34:12.233Z,21.40
2018-02-19T11:36:39.268Z,21.60
2018-02-19T11:39:06.271Z,23.65
2018-02-19T11:41:33.214Z,21.60
2018-02-19T11:44:00.367Z,19.45
2018-02-19T11:46:27.440Z,21.25
2018-02-19T11:48:54.571Z,20.90
2018-02-19T11:51:22.478Z,22.95
2018-02-19T11:53:50.262Z,20.12
2018-02-19T11:56:17.407Z,19.87
2018-02-19T11:58:44.649Z,21.40
2018-02-19T12:01:11.884Z,19.15
2018-02-19T12:03:45.236Z,19.83
2018-02-19T12:06:16.333Z,20.62
2018-02-19T12:08:53.714Z,21.58
2018-02-19T12:11:20.919Z,21.70
2018-02-19T12:13:48.163Z,19.77
2018-02-19T12:16:16.167Z,19.25
2018-02-19T12:18:43.248Z,21.83
2018-02-19T12:21:10.464Z,19.17
2018-02-19T12:23:37.537Z,19.85
2018-02-19T12:26:04.909Z,22.45
2018-02-19T12:28:32.099Z,20.23
2018-02-19T12:30:59.412Z,20.77
2018-02-19T12:33:26.558Z,20.57
2018-02-19T12:35:53.810Z,18.95
2018-02-19T12:38:21.641Z,20.83
2018-02-19T12:40:48.997Z,20.95
2018-02-19T12:43:20.082Z,18.30
2018-02-19T12:45:48.776Z,20.52
2018-02-19T12:48:16.639Z,18.10
2018-02-19T12:50:43.731Z,17.97
2018-02-19T12:53:10.812Z,20.10
2018-02-19T12:55:37.861Z,17.80
2018-02-19T12:58:10.539Z,18.70
2018-02-19T13:00:38.443Z,19.42
2018-02-19T13:03:07.684Z,19.17
2018-02-19T13:05:44.201Z,18.85
2018-02-19T13:08:14.177Z,18.30
2018-02-19T13:10:41.678Z,17.70
2018-02-19T13:13:08.862Z,19.00
2018-02-19T13:15:36.843Z,18.02
2018-02-19T13:18:16.632Z,18.65
2018-02-19T13:20:51.569Z,17.35
2018-02-19T13:23:19.135Z,18.45
2018-02-19T13:25:59.532Z,18.25
2018-02-19T13:28:27.416Z,18.20
2018-02-19T13:30:54.597Z,17.25
2018-02-19T13:33:21.540Z,16.73
2018-02-19T13:35:49.634Z,17.87
2018-02-19T13:38:20.907Z,19.17
2018-02-19T13:40:48.918Z,17.20
2018-02-19T13:43:16.017Z,20.10
2018-02-19T13:45:47.085Z,18.33
2018-02-19T13:48:15.124Z,18.58
2018-02-19T13:50:56.868Z,19.48
2018-02-19T13:53:26.750Z,16.67
2018-02-19T13:55:53.725Z,19.37
2018-02-19T13:58:22.500Z,16.52
2018-02-19T14:00:49.556Z,19.12
2018-02-19T14:03:16.521Z,18.08
2018-02-19T14:05:56.588Z,17.45
2018-02-19T14:08:25.228Z,18.55
2018-02-19T14:10:52.126Z,17.62
2018-02-19T14:13:19.028Z,17.02
2018-02-19T14:15:46.630Z,15.95
2018-02-19T14:18:13.703Z,17.10
2018-02-19T14:20:42.698Z,15.43
2018-02-19T14:23:09.727Z,16.50
2018-02-19T14:25:36.683Z,15.88
2018-02-19T14:28:05.120Z,16.10
2018-02-19T14:30:32.034Z,17.00
2018-02-19T14:32:59.778Z,16.40
2018-02-19T14:35:27.379Z,15.73
2018-02-19T14:38:01.992Z,16.08
2018-02-19T14:40:29.741Z,16.55
2018-02-19T14:43:06.750Z,16.48
2018-02-19T14:45:37.941Z,17.65
2018-02-19T14:48:04.846Z,15.40
2018-02-19T14:50:35.226Z,15.52
2018-02-19T14:53:09.430Z,16.15
2018-02-19T14:55:48.544Z,15.45
2018-02-19T14:58:28.623Z,16.50
2018-02-19T15:01:03.535Z,16.75
2018-02-19T15:03:30.503Z,16.95
2018-02-19T15:05:58.697Z,14.90
2018-02-19T15:08:27.517Z,16.73
2018-02-19T15:10:55.273Z,14.05
2018-02-19T15:13:34.342Z,14.40
2018-02-19T15:16:02.480Z,14.40
2018-02-19T15:18:30.875Z,16.87
2018-02-19T15:21:08.000Z,14.95
2018-02-19T15:23:35.028Z,14.98
2018-02-19T15:26:13.807Z,14.05
2018-02-19T15:28:52.951Z,13.60
2018-02-19T15:31:32.730Z,14.27
2018-02-19T15:34:15.124Z,15.48
2018-02-19T15:36:56.511Z,14.00
2018-02-19T15:39:23.979Z,14.15
2018-02-19T15:41:50.964Z,12.93
2018-02-19T15:44:17.872Z,14.63
2018-02-19T15:46:44.831Z,13.45
2018-02-19T15:49:12.243Z,13.20
2018-02-19T15:51:49.309Z,14.90
2018-02-19T15:54:26.728Z,13.82
2018-02-19T15:56:58.067Z,14.02
2018-02-19T15:59:35.528Z,13.20
2018-02-19T16:02:14.681Z,14.32
2018-02-19T16:04:43.150Z,12.10
2018-02-19T16:07:14.544Z,13.95
2018-02-19T16:09:41.537Z,14.50
2018-02-19T16:12:09.469Z,14.25
2018-02-19T16:14:39.862Z,14.98
2018-02-19T16:17:09.262Z,14.18
2018-02-19T16:22:18.571Z,13.13
2018-02-19T16:24:51.533Z,15.10
2018-02-19T16:27:26.609Z,13.95
2018-02-19T16:29:57.746Z,16.05
2018-02-19T16:32:24.716Z,14.60
2018-02-19T16:34:52.442Z,14.35
2018-02-19T16:37:32.303Z,15.40
2018-02-19T16:40:15.019Z,15.07
2018-02-19T16:42:58.259Z,16.65
2018-02-19T16:45:37.854Z,17.75
2018-02-19T16:48:19.557Z,18.27
2018-02-19T16:50:50.142Z,14.98
2018-02-19T16:53:17.278Z,15.20
2018-02-19T16:55:44.322Z,14.05
2018-02-19T16:58:11.255Z,15.15
2018-02-19T17:00:38.233Z,14.55
2018-02-19T17:03:10.875Z,13.98
2018-02-19T17:05:46.623Z,16.15
2018-02-19T17:08:14.484Z,13.80
2018-02-19T17:10:54.415Z,13.88
2018-02-19T17:13:22.744Z,16.17
2018-02-19T17:15:50.173Z,14.93
2018-02-19T17:18:17.154Z,20.35
2018-02-19T17:20:45.297Z,18.95
2018-02-19T17:23:13.053Z,17.92
2018-02-19T17:25:39.948Z,15.48
2018-02-19T17:28:10.254Z,17.45
2018-02-19T17:30:37.815Z,17.52
2018-02-19T17:33:04.743Z,19.02
2018-02-19T17:35:32.610Z,16.98
2018-02-19T17:38:02.932Z,17.30
2018-02-19T17:40:32.057Z,18.30
2018-02-19T17:42:59.387Z,17.60
2018-02-19T17:45:33.158Z,16.02
2018-02-19T17:48:01.015Z,15.98
2018-02-19T17:50:42.789Z,19.27
2018-02-19T17:53:13.154Z,16.58
2018-02-19T17:55:54.243Z,15.15
2018-02-19T17:58:23.700Z,15.30
2018-02-19T18:00:50.742Z,16.48
2018-02-19T18:03:17.728Z,16.98
2018-02-19T18:05:46.543Z,17.33
2018-02-19T18:08:17.993Z,18.40
2018-02-19T18:10:49.102Z,18.45
2018-02-19T18:13:16.783Z,16.15
2018-02-19T18:15:43.684Z,17.25
2018-02-19T18:18:10.636Z,17.27
2018-02-19T18:20:37.605Z,14.65
2018-02-19T18:23:05.226Z,16.90
2018-02-19T18:25:32.180Z,17.80
2018-02-19T18:27:59.076Z,16.33
2018-02-19T18:30:26.093Z,17.52
2018-02-19T18:32:52.975Z,18.25
2018-02-19T18:35:31.443Z,16.87
2018-02-19T18:37:58.939Z,18.35
2018-02-19T18:40:27.294Z,17.17
2018-02-19T18:42:54.224Z,17.33
2018-02-19T18:45:28.993Z,19.27
2018-02-19T18:50:40.501Z,17.12
2018-02-19T18:53:08.175Z,20.83
2018-02-19T18:55:35.195Z,16.02
2018-02-19T18:58:04.079Z,17.10
2018-02-19T19:00:31.090Z,17.48
2018-02-19T19:02:58.642Z,17.33
2018-02-19T19:05:33.903Z,20.83
2018-02-19T19:08:20.251Z,20.80
2018-02-19T19:11:05.273Z,18.98
2018-02-19T19:13:44.898Z,17.45
2018-02-19T19:16:18.301Z,20.05
2018-02-19T19:18:46.906Z,20.20
2018-02-19T19:21:14.453Z,21.20
2018-02-19T19:23:43.388Z,20.30
2018-02-19T19:26:12.729Z,27.17
2018-02-19T19:28:40.505Z,20.88
2018-02-19T19:31:20.169Z,17.52
2018-02-19T19:33:47.529Z,18.02
2018-02-19T19:36:17.187Z,19.60
2018-02-19T19:38:44.131Z,21.42
2018-02-19T19:41:11.076Z,19.27
2018-02-19T19:43:37.966Z,18.37
2018-02-19T19:46:10.400Z,18.65
2018-02-19T19:48:46.326Z,19.92
2018-02-19T19:51:17.481Z,19.60
2018-02-19T19:53:59.084Z,20.85
2018-02-19T19:56:27.008Z,20.30
2018-02-19T19:58:55.251Z,19.70
2018-02-19T20:01:24.324Z,18.77
2018-02-19T20:03:51.265Z,19.92
2018-02-19T20:06:19.080Z,18.80
2018-02-19T20:08:58.947Z,19.77
2018-02-19T20:11:38.842Z,21.12
2018-02-19T20:14:20.489Z,21.12
2018-02-19T20:19:34.282Z,23.87
2018-02-19T20:22:02.007Z,23.02
2018-02-19T20:24:29.747Z,19.70
2018-02-19T20:26:56.652Z,19.52
2018-02-19T20:29:37.459Z,20.25
2018-02-19T20:32:06.177Z,19.20
2018-02-19T20:34:33.263Z,21.75
2018-02-19T20:37:00.209Z,16.80
2018-02-19T20:39:28.333Z,17.12
2018-02-19T20:41:56.496Z,17.37
2018-02-19T20:44:27.145Z,17.45
2018-02-19T20:47:07.734Z,18.17
2018-02-19T20:49:46.980Z,15.32
2018-02-19T20:52:29.243Z,17.50
2018-02-19T20:55:09.888Z,19.73
2018-02-19T20:57:52.816Z,17.80
2018-02-19T21:00:20.948Z,20.23
2018-02-19T21:02:58.598Z,19.17
2018-02-19T21:05:33.312Z,20.23
2018-02-19T21:08:11.286Z,20.77
2018-02-19T21:10:38.381Z,20.15
2018-02-19T21:13:05.279Z,19.15
2018-02-19T21:15:44.491Z,18.20
2018-02-19T21:18:12.284Z,17.75
2018-02-19T21:20:52.391Z,17.98
2018-02-19T21:23:29.071Z,19.05
2018-02-19T21:26:11.383Z,18.25
2018-02-19T21:28:54.138Z,18.52
2018-02-19T21:31:34.931Z,19.23
2018-02-19T21:34:02.600Z,19.62
2018-02-19T21:36:31.375Z,18.30
2018-02-19T21:38:59.619Z,19.30
2018-02-19T21:41:29.998Z,18.12
2018-02-19T21:44:11.079Z,18.23
2018-02-19T21:46:52.851Z,18.83
2018-02-19T21:49:28.594Z,19.77
2018-02-19T21:52:01.295Z,18.05
2018-02-19T21:54:29.030Z,18.75
2018-02-19T21:57:01.553Z,18.70
2018-02-19T21:59:28.496Z,19.33
2018-02-19T22:02:01.960Z,19.58
2018-02-19T22:04:42.790Z,19.10
2018-02-19T22:07:23.585Z,18.20
2018-02-19T22:10:06.429Z,21.17
2018-02-19T22:12:47.149Z,19.67
2018-02-19T22:15:28.279Z,22.67
2018-02-19T22:18:06.491Z,21.35
2018-02-19T22:20:47.691Z,21.30
2018-02-19T22:23:29.715Z,21.00
2018-02-19T22:26:09.907Z,20.35
2018-02-19T22:28:50.570Z,25.48
2018-02-19T22:31:33.607Z,28.70
2018-02-19T22:34:15.860Z,29.30
2018-02-19T22:36:55.200Z,26.95
2018-02-19T22:39:38.831Z,24.10
2018-02-19T22:42:19.537Z,21.85
2018-02-19T22:45:03.556Z,23.10
2018-02-19T22:47:45.432Z,22.17
2018-02-19T22:50:27.737Z,22.27
2018-02-19T22:53:10.168Z,21.95
2018-02-19T22:55:52.090Z,22.40
2018-02-19T22:58:33.767Z,22.37
2018-02-19T23:01:16.632Z,23.65
2018-02-19T23:03:57.402Z,21.30
2018-02-19T23:06:39.238Z,20.55
2018-02-19T23:09:19.956Z,21.55
2018-02-19T23:12:02.866Z,21.52
2018-02-19T23:14:30.656Z,19.77
2018-02-19T23:16:58.344Z,18.02
2018-02-19T23:19:25.860Z,21.85
2018-02-19T23:21:53.297Z,20.60
2018-02-19T23:24:20.364Z,21.87
2018-02-19T23:26:47.262Z,19.80
2018-02-19T23:29:14.193Z,20.80
2018-02-19T23:31:41.145Z,18.45
2018-02-19T23:34:08.016Z,19.83
2018-02-19T23:36:35.530Z,19.75
2018-02-19T23:39:02.607Z,29.12
2018-02-19T23:41:29.572Z,30.05
2018-02-19T23:43:56.464Z,23.33
2018-02-19T23:46:23.370Z,21.37
2018-02-19T23:48:50.316Z,19.73
2018-02-19T23:51:17.174Z,21.60
2018-02-19T23:53:44.112Z,18.70
2018-02-19T23:56:11.023Z,17.87
2018-02-19T23:58:37.954Z,19.40
